Storm Lake, IA

8:16 AM CDT on October 19, 2017 (GMT -0500)
Storm Lake Municipal

Weather History for KSLB - February, 2013

Change the Weather History Date:

Sunday, February 17, 2013

  Actual Average Record
Temperature  
Mean Temperature 34 °F -  
Max Temperature 48 °F 33 °F 60 °F (2017)
Min Temperature 19 °F 19 °F -7 °F (2006)
Degree Days  
Heating Degree Days 32    
Moisture  
Dew Point 25 °F    
Average Humidity 76    
Maximum Humidity 93    
Minimum Humidity 50    
Precipitation  
Precipitation 0.00 in - - ()
Sea Level Pressure  
Sea Level Pressure 29.78 in    
Wind  
Wind Speed 13 mph (SSE)    
Max Wind Speed 26 mph    
Max Gust Speed 32 mph    
Visibility 10 miles    
Events      
Averages and records for this station are not official NWS values.
T = Trace of Precipitation, MM = Missing Value Source: NWS Daily Summary

Daily Weather History Graph

Daily Weather History Graph

Search for Another Location

Airport or City:

Trip Planner

Search our weather history database for the weather conditions in past years. The results will help you decide how hot, cold, wet, or windy it might be!

Date:

Astronomy

Feb. 17, 2013 Rise Set
Actual Time 7:14 AM CST 5:55 PM CST
Civil Twilight 6:45 AM CST 6:24 PM CST
Nautical Twilight 6:12 AM CST 6:57 PM CST
Astronomical Twilight 5:40 AM CST 7:30 PM CST
Moon 10:57 AM CST (2/17) 1:02 AM CST (2/17)
Length of Visible Light 11h 38m
Length of Day
10h 41m
Waxing Crescent, 49% of the Moon is Illuminated
Feb 17
Waxing Crescent
Feb 17
First Quarter
Feb 25
Full
Mar 4
Last Quarter
Mar 11
New

Hourly Weather History & Observations

Time (CST) Temp. Windchill Dew Point Humidity Pressure Visibility Wind Dir Wind Speed Gust Speed Precip Events Conditions
12:15 AM 24.8 °F 16.1 °F 21.2 °F 86% 30.00 in 10.0 mi South 8.1 mph - N/A   Mostly Cloudy
12:35 AM 24.8 °F 16.9 °F 21.2 °F 86% 30.00 in 10.0 mi South 6.9 mph - N/A   Overcast
12:55 AM 24.8 °F 16.1 °F 21.2 °F 86% 29.99 in 10.0 mi South 8.1 mph - N/A   Overcast
1:15 AM 24.8 °F 16.9 °F 21.2 °F 86% 29.99 in 10.0 mi South 6.9 mph - N/A   Overcast
1:35 AM 24.8 °F 16.9 °F 21.2 °F 86% 30.00 in 10.0 mi SSE 6.9 mph - N/A   Overcast
1:55 AM 24.8 °F 16.9 °F 23.0 °F 93% 30.00 in 10.0 mi SSE 6.9 mph - N/A   Overcast
2:15 AM 23.0 °F 15.8 °F 21.2 °F 93% 29.99 in 10.0 mi SE 5.8 mph - N/A   Mostly Cloudy
2:35 AM 23.0 °F 14.7 °F 21.2 °F 93% 29.99 in 10.0 mi SE 6.9 mph - N/A   Partly Cloudy
2:55 AM 23.0 °F 13.9 °F 19.4 °F 86% 29.98 in 10.0 mi SE 8.1 mph - N/A   Clear
3:15 AM 21.2 °F 13.6 °F 17.6 °F 86% 29.98 in 10.0 mi SSE 5.8 mph - N/A   Clear
3:35 AM 21.2 °F 11.7 °F 19.4 °F 93% 29.98 in 10.0 mi SSE 8.1 mph - N/A   Clear
3:55 AM 19.4 °F 9.5 °F 17.6 °F 93% 29.96 in 10.0 mi SSE 8.1 mph - N/A   Clear
4:15 AM 19.4 °F 10.4 °F 17.6 °F 93% 29.96 in 10.0 mi SSE 6.9 mph - N/A   Clear
4:35 AM 19.4 °F 9.5 °F 17.6 °F 93% 29.95 in 10.0 mi SE 8.1 mph - N/A   Clear
4:55 AM 19.4 °F 7.9 °F 17.6 °F 93% 29.95 in 10.0 mi SSE 10.4 mph - N/A   Clear
5:15 AM 19.4 °F 8.6 °F 17.6 °F 93% 29.95 in 10.0 mi SSE 9.2 mph - N/A   Clear
5:35 AM 19.4 °F 8.6 °F 17.6 °F 93% 29.94 in 10.0 mi SE 9.2 mph - N/A   Clear
5:55 AM 19.4 °F 7.9 °F 17.6 °F 93% 29.93 in 10.0 mi SSE 10.4 mph - N/A   Clear
6:15 AM 21.2 °F 9.5 °F 17.6 °F 86% 29.92 in 10.0 mi SE 11.5 mph - N/A   Clear
6:35 AM 19.4 °F 6.6 °F 17.6 °F 93% 29.92 in 10.0 mi SSE 12.7 mph - N/A   Clear
6:55 AM 19.4 °F 7.2 °F 17.6 °F 93% 29.92 in 10.0 mi SSE 11.5 mph - N/A   Clear
7:15 AM 19.4 °F 7.2 °F 17.6 °F 93% 29.91 in 9.0 mi SE 11.5 mph - N/A   Clear
7:35 AM 19.4 °F 6.6 °F 17.6 °F 93% 29.91 in 9.0 mi SSE 12.7 mph - N/A   Clear
7:55 AM 19.4 °F 6.6 °F 17.6 °F 93% 29.91 in 8.0 mi SE 12.7 mph - N/A   Clear
8:15 AM 21.2 °F 8.9 °F 19.4 °F 93% 29.91 in 8.0 mi SSE 12.7 mph - N/A   Clear
8:35 AM 23.0 °F 10.6 °F 19.4 °F 86% 29.90 in 9.0 mi SSE 13.8 mph - N/A   Clear
8:55 AM 24.8 °F 12.4 °F 21.2 °F 86% 29.89 in 10.0 mi SSE 15.0 mph - N/A   Clear
9:15 AM 26.6 °F 14.7 °F 23.0 °F 86% 29.88 in - SSE 15.0 mph - N/A   Clear
9:35 AM 26.6 °F 13.8 °F 23.0 °F 86% 29.88 in 10.0 mi SSE 17.3 mph - N/A   Clear
9:55 AM 28.4 °F 17.5 °F 24.8 °F 86% 29.88 in 10.0 mi SSE 13.8 mph - N/A   Clear
10:15 AM 30.2 °F 18.9 °F 24.8 °F 80% 29.87 in 10.0 mi SSE 16.1 mph 23.0 mph N/A   Clear
10:35 AM 32.0 °F 20.1 °F 24.8 °F 75% 29.85 in 10.0 mi SSE 19.6 mph - N/A   Clear
10:55 AM 33.8 °F 22.5 °F 26.6 °F 75% 29.84 in 10.0 mi SSE 19.6 mph - N/A   Clear
11:15 AM 35.6 °F 24.2 °F 26.6 °F 70% 29.83 in 10.0 mi SSE 21.9 mph - N/A   Clear
11:35 AM 37.4 °F 27.2 °F 26.6 °F 65% 29.82 in 10.0 mi South 19.6 mph - N/A   Clear
11:55 AM 39.2 °F 29.3 °F 26.6 °F 61% 29.81 in 10.0 mi SSE 20.7 mph - N/A   Clear
12:15 PM 41.0 °F 31.4 °F 28.4 °F 61% 29.78 in 10.0 mi SSE 21.9 mph - N/A   Clear
12:35 PM 41.0 °F 31.4 °F 28.4 °F 61% 29.77 in 10.0 mi SSE 21.9 mph - N/A   Clear
1:15 PM 44.6 °F 35.7 °F 28.4 °F 53% 29.73 in 10.0 mi South 24.2 mph 29.9 mph N/A   Clear
1:35 PM 44.6 °F 35.7 °F 28.4 °F 53% 29.72 in 10.0 mi SSE 24.2 mph 29.9 mph N/A   Clear
1:55 PM 44.6 °F 35.9 °F 28.4 °F 53% 29.71 in 10.0 mi SSE 23.0 mph 32.2 mph N/A   Clear
2:15 PM 46.4 °F 37.9 °F 30.2 °F 53% 29.70 in 10.0 mi SSE 25.3 mph - N/A   Clear
2:35 PM 46.4 °F 37.9 °F 30.2 °F 53% 29.68 in 10.0 mi SSE 25.3 mph 32.2 mph N/A   Clear
2:55 PM 48.2 °F - 30.2 °F 50% 29.68 in 10.0 mi SSE 23.0 mph 29.9 mph N/A   Clear
3:15 PM 48.2 °F - 30.2 °F 50% 29.67 in 10.0 mi South 26.5 mph - N/A   Clear
3:35 PM 48.2 °F - 30.2 °F 50% 29.66 in 10.0 mi SSE 24.2 mph 29.9 mph N/A   Clear
3:55 PM 46.4 °F 38.3 °F 30.2 °F 53% 29.66 in 10.0 mi SSE 23.0 mph 29.9 mph N/A   Clear
4:15 PM 46.4 °F 38.5 °F 30.2 °F 53% 29.64 in 10.0 mi SSE 21.9 mph 31.1 mph N/A   Clear
4:35 PM 44.6 °F 36.4 °F 30.2 °F 57% 29.63 in 10.0 mi SSE 20.7 mph 26.5 mph N/A   Clear
4:55 PM 42.8 °F 34.3 °F 30.2 °F 61% 29.62 in 10.0 mi SSE 19.6 mph - N/A   Clear
5:15 PM 42.8 °F 34.3 °F 30.2 °F 61% 29.61 in 10.0 mi SSE 19.6 mph - N/A   Clear
5:35 PM 42.8 °F 34.3 °F 30.2 °F 61% 29.61 in 10.0 mi SSE 19.6 mph - N/A   Clear
5:55 PM 42.8 °F 34.3 °F 30.2 °F 61% 29.61 in 10.0 mi SSE 19.6 mph - N/A   Clear
6:15 PM 41.0 °F 31.6 °F 30.2 °F 65% 29.60 in 10.0 mi SSE 20.7 mph 26.5 mph N/A   Clear
6:55 PM 41.0 °F 31.6 °F 28.4 °F 61% 29.60 in 10.0 mi SSE 20.7 mph 28.8 mph N/A   Clear
7:15 PM 39.2 °F 30.2 °F 28.4 °F 65% 29.61 in 10.0 mi SSE 17.3 mph - N/A   Clear
7:35 PM 37.4 °F 27.8 °F 28.4 °F 70% 29.60 in 10.0 mi SSE 17.3 mph - N/A   Clear
7:55 PM 37.4 °F 27.5 °F 28.4 °F 70% 29.60 in 10.0 mi SSE 18.4 mph - N/A   Clear
8:15 PM 37.4 °F 27.2 °F 28.4 °F 70% 29.59 in 10.0 mi SSE 19.6 mph - N/A   Clear
8:35 PM 37.4 °F 26.9 °F 28.4 °F 70% 29.59 in 10.0 mi SSE 20.7 mph - N/A   Clear
9:15 PM 37.4 °F 27.8 °F 30.2 °F 75% 29.58 in 10.0 mi SSE 17.3 mph - N/A   Clear
9:35 PM 37.4 °F 27.8 °F 30.2 °F 75% 29.58 in 10.0 mi South 17.3 mph - N/A   Clear
9:55 PM 37.4 °F 27.5 °F 30.2 °F 75% 29.57 in 10.0 mi South 18.4 mph - N/A   Clear
10:15 PM 37.4 °F 27.8 °F 30.2 °F 75% 29.56 in 10.0 mi South 17.3 mph - N/A   Clear
10:35 PM 35.6 °F 25.9 °F 30.2 °F 81% 29.56 in 10.0 mi South 16.1 mph - N/A   Clear
10:55 PM 35.6 °F 26.2 °F 30.2 °F 81% 29.56 in 10.0 mi South 15.0 mph - N/A   Clear
11:15 PM 37.4 °F 28.5 °F 30.2 °F 75% 29.55 in 10.0 mi South 15.0 mph - N/A   Clear
11:35 PM 37.4 °F 29.3 °F 30.2 °F 75% 29.55 in 10.0 mi South 12.7 mph - N/A   Clear
11:55 PM 37.4 °F 28.9 °F 30.2 °F 75% 29.55 in 10.0 mi South 13.8 mph - N/A   Clear